Time;durP1;ratioP1;P1;durP2;ratioP2;P2;SDS_P1;SDS_P2;PMS_P1;PMS_P2;Temp;Humidity;BMP_temperature;BMP_pressure;BME280_temperature;BME280_humidity;BME280_pressure;Samples;Min_cycle;Max_cycle;Signal;HPM_P1;HPM_P2
2021/12/21 00:00:34;;;;;;;26.05;13.75;;;;;;;-2.36;100.00;102301.00;5018402;28;20144;-84
2021/12/21 00:03:00;;;;;;;21.77;13.20;;;;;;;-2.31;100.00;102300.84;5021285;28;20116;-84
2021/12/21 00:05:29;;;;;;;25.73;13.07;;;;;;;-2.31;100.00;102300.84;5022850;28;20040;-84
2021/12/21 00:07:57;;;;;;;21.00;13.40;;;;;;;-2.29;100.00;102299.91;5019126;28;20029;-83
2021/12/21 00:10:28;;;;;;;23.70;13.95;;;;;;;-2.29;100.00;102307.78;5019336;28;20044;-84
2021/12/21 00:15:36;;;;;;;21.23;13.35;;;;;;;-2.44;100.00;102299.50;5021226;28;20047;-85
2021/12/21 00:18:15;;;;;;;27.52;15.40;;;;;;;-2.38;100.00;102299.31;5003748;28;20061;-82
2021/12/21 00:25:40;;;;;;;23.05;13.82;;;;;;;-2.49;100.00;102294.34;5022432;28;20044;-82
2021/12/21 00:28:06;;;;;;;23.60;13.10;;;;;;;-2.52;100.00;102291.81;5034826;28;20099;-83
2021/12/21 00:30:32;;;;;;;20.25;12.43;;;;;;;-2.53;100.00;102288.31;5017646;28;20077;-84
2021/12/21 00:32:57;;;;;;;24.48;13.85;;;;;;;-2.47;100.00;102289.91;5019732;28;20068;-83
2021/12/21 00:35:23;;;;;;;22.42;13.07;;;;;;;-2.56;100.00;102288.41;5035103;28;20049;-82
2021/12/21 00:37:49;;;;;;;25.13;13.50;;;;;;;-2.53;100.00;102285.69;5020550;28;20629;-84
2021/12/21 00:40:14;;;;;;;22.45;13.80;;;;;;;-2.58;100.00;102279.72;5022450;28;20049;-83
2021/12/21 00:42:40;;;;;;;23.70;14.15;;;;;;;-2.64;100.00;102279.88;5017180;28;20049;-84
2021/12/21 00:45:06;;;;;;;22.65;13.65;;;;;;;-2.58;100.00;102281.47;5020645;28;20041;-84
2021/12/21 00:47:34;;;;;;;23.65;13.55;;;;;;;-2.64;100.00;102272.00;5003446;28;20143;-84
2021/12/21 00:50:02;;;;;;;29.75;14.07;;;;;;;-2.67;100.00;102272.09;5021889;28;20042;-83
2021/12/21 00:52:29;;;;;;;19.77;14.05;;;;;;;-2.71;100.00;102283.56;5022294;28;20533;-82
2021/12/21 00:54:55;;;;;;;25.08;14.30;;;;;;;-2.73;100.00;102269.63;5025977;28;21939;-83
2021/12/21 00:57:21;;;;;;;24.70;14.05;;;;;;;-2.66;100.00;102276.44;5026482;28;20501;-84
2021/12/21 00:59:47;;;;;;;20.50;12.40;;;;;;;-2.73;100.00;102280.16;5038200;28;20045;-83
2021/12/21 01:02:13;;;;;;;22.05;13.13;;;;;;;-2.80;100.00;102274.19;5026905;28;20152;-85
2021/12/21 01:04:44;;;;;;;26.15;13.75;;;;;;;-2.79;100.00;102269.78;5023771;28;20494;-81
2021/12/21 01:12:25;;;;;;;22.48;13.27;;;;;;;-2.91;100.00;102267.50;5023813;28;20073;-84
2021/12/21 01:17:34;;;;;;;19.97;11.97;;;;;;;-2.96;100.00;102265.00;5025414;28;20051;-82
2021/12/21 01:20:07;;;;;;;23.15;11.45;;;;;;;-3.04;100.00;102265.22;5028867;28;20053;-84
2021/12/21 01:35:47;;;;;;;20.65;11.75;;;;;;;-3.07;100.00;102253.94;5023584;28;20056;-84
2021/12/21 01:38:29;;;;;;;20.00;11.50;;;;;;;-3.04;100.00;102253.84;5024458;28;20810;-83
2021/12/21 01:43:28;;;;;;;27.85;12.77;;;;;;;-3.04;100.00;102251.22;5025686;28;20044;-83
2021/12/21 01:51:22;;;;;;;19.52;11.73;;;;;;;-3.06;100.00;102253.00;5021273;28;20064;-83
2021/12/21 01:53:49;;;;;;;20.20;13.13;;;;;;;-3.04;100.00;102254.69;5022665;28;20490;-82
2021/12/21 01:56:15;;;;;;;19.15;12.57;;;;;;;-3.06;100.00;102245.13;5023146;28;20375;-82
2021/12/21 01:58:41;;;;;;;22.42;12.45;;;;;;;-3.08;100.00;102253.06;5024132;28;20072;-82
2021/12/21 02:01:11;;;;;;;20.63;12.77;;;;;;;-3.07;100.00;102254.78;5022824;28;20091;-84
2021/12/21 02:03:36;;;;;;;25.23;12.38;;;;;;;-3.11;100.00;102249.63;5024057;28;20084;-83
2021/12/21 02:06:03;;;;;;;19.75;12.43;;;;;;;-3.19;100.00;102252.50;5022869;28;20080;-85
2021/12/21 02:08:28;;;;;;;25.15;13.50;;;;;;;-3.15;100.00;102256.75;5025119;28;20049;-83
2021/12/21 02:10:54;;;;;;;22.02;10.85;;;;;;;-3.17;100.00;102248.03;5023822;28;20064;-86
2021/12/21 02:13:19;;;;;;;20.48;12.35;;;;;;;-3.21;100.00;102246.41;5022987;28;20379;-82
2021/12/21 02:15:45;;;;;;;24.58;12.77;;;;;;;-3.24;100.00;102247.34;5004339;28;20037;-84
2021/12/21 02:18:36;;;;;;;18.88;11.55;;;;;;;-3.24;100.00;102242.09;5038660;28;20033;-82
2021/12/21 02:21:19;;;;;;;23.45;13.43;;;;;;;-3.32;100.00;102241.44;5020307;28;20041;-82
2021/12/21 02:23:46;;;;;;;21.77;12.40;;;;;;;-3.34;100.00;102245.84;5023970;28;20058;-83
2021/12/21 02:31:35;;;;;;;22.40;13.07;;;;;;;-3.33;100.00;102244.13;5041655;28;20477;-84
2021/12/21 02:34:01;;;;;;;24.52;13.98;;;;;;;-3.32;100.00;102243.19;5025810;28;20061;-84
2021/12/21 02:36:26;;;;;;;21.42;12.30;;;;;;;-3.31;100.00;102237.91;5045531;28;20758;-82
2021/12/21 02:38:51;;;;;;;21.70;13.20;;;;;;;-3.32;100.00;102241.44;5026639;28;20095;-83
2021/12/21 02:41:17;;;;;;;21.02;12.40;;;;;;;-3.29;100.00;102243.13;5035109;28;20044;-82
2021/12/21 02:43:42;;;;;;;23.35;13.55;;;;;;;-3.23;100.00;102237.69;5043988;28;20114;-80
2021/12/21 02:46:08;;;;;;;23.50;13.95;;;;;;;-3.34;100.00;102237.13;5026562;28;20515;-83
2021/12/21 02:48:33;;;;;;;22.77;14.32;;;;;;;-3.42;100.00;102238.19;5012643;28;20045;-82
2021/12/21 02:51:00;;;;;;;21.90;12.93;;;;;;;-3.41;100.00;102236.41;5041939;28;20424;-81
2021/12/21 02:53:25;;;;;;;22.42;14.43;;;;;;;-3.40;100.00;102231.13;4992225;28;20045;-83
2021/12/21 02:55:51;;;;;;;24.58;14.02;;;;;;;-3.42;100.00;102237.34;5019824;28;20496;-84
2021/12/21 02:58:16;;;;;;;25.08;15.85;;;;;;;-3.42;100.00;102238.19;5023573;28;20029;-82
2021/12/21 03:00:43;;;;;;;25.25;14.90;;;;;;;-3.42;100.00;102238.19;5019809;28;20042;-82
2021/12/21 03:03:13;;;;;;;23.10;13.65;;;;;;;-3.50;100.00;102239.28;5024533;28;20410;-82
2021/12/21 03:05:39;;;;;;;22.92;14.40;;;;;;;-3.52;100.00;102239.31;5023024;28;20041;-81
2021/12/21 03:10:30;;;;;;;25.27;15.63;;;;;;;-3.55;100.00;102231.50;5024990;28;20065;-81
2021/12/21 03:15:41;;;;;;;22.85;15.20;;;;;;;-3.56;100.00;102239.44;5018162;28;20522;-81
2021/12/21 03:18:06;;;;;;;21.83;14.40;;;;;;;-3.58;100.00;102236.84;4997460;28;20041;-84
2021/12/21 03:20:32;;;;;;;23.02;14.13;;;;;;;-3.62;100.00;102235.22;5025656;28;20045;-82
2021/12/21 03:22:57;;;;;;;22.77;13.85;;;;;;;-3.61;100.00;102236.91;5042947;28;20045;-82
2021/12/21 03:25:23;;;;;;;25.55;13.55;;;;;;;-3.63;100.00;102220.34;5002806;28;20410;-82
2021/12/21 03:27:48;;;;;;;23.83;14.05;;;;;;;-3.69;100.00;102228.38;5018672;28;20483;-81
2021/12/21 03:30:15;;;;;;;21.25;13.40;;;;;;;-3.63;100.00;102230.84;5019717;28;20041;-81
2021/12/21 03:32:42;;;;;;;27.45;13.38;;;;;;;-3.74;100.00;102223.25;5021898;28;20049;-81
2021/12/21 03:35:08;;;;;;;22.70;13.63;;;;;;;-3.73;100.00;102229.38;5023211;28;20037;-83
2021/12/21 03:37:34;;;;;;;23.80;13.57;;;;;;;-3.76;100.00;102227.69;5030784;28;20091;-84
2021/12/21 03:40:02;;;;;;;23.13;13.27;;;;;;;-3.71;100.00;102228.44;5020531;28;20041;-83
2021/12/21 03:42:28;;;;;;;22.48;13.32;;;;;;;-3.63;100.00;102222.97;5024145;28;20072;-83
2021/12/21 03:44:54;;;;;;;19.33;12.77;;;;;;;-3.71;100.00;102225.81;5022342;28;20037;-83
2021/12/21 03:47:22;;;;;;;19.08;13.02;;;;;;;-3.66;100.00;102223.06;5024100;28;20049;-83
2021/12/21 03:49:53;;;;;;;22.58;13.68;;;;;;;-3.73;100.00;102224.13;5020870;28;20038;-82
2021/12/21 03:52:21;;;;;;;21.33;13.63;;;;;;;-3.78;100.00;102218.13;5022784;28;20120;-82
2021/12/21 03:54:49;;;;;;;23.60;13.57;;;;;;;-3.77;100.00;102215.47;5021070;28;20040;-82
2021/12/21 03:57:16;;;;;;;21.08;14.27;;;;;;;-3.85;100.00;102222.66;5037032;28;20276;-85
2021/12/21 03:59:42;;;;;;;25.60;14.43;;;;;;;-3.79;100.00;102226.91;5023044;28;20033;-85
2021/12/21 04:02:11;;;;;;;22.80;14.13;;;;;;;-3.81;100.00;102208.56;5002682;28;20029;-82
2021/12/21 04:04:39;;;;;;;22.67;14.02;;;;;;;-3.86;100.00;102223.53;5018924;28;20046;-83
2021/12/21 04:07:05;;;;;;;23.55;14.02;;;;;;;-3.90;100.00;102220.13;5024018;28;20038;-82
2021/12/21 04:09:30;;;;;;;24.48;13.75;;;;;;;-3.90;100.00;102217.50;5007314;28;20042;-84
2021/12/21 04:11:56;;;;;;;23.60;14.52;;;;;;;-3.87;100.00;102214.81;5020730;28;20038;-82
2021/12/21 04:14:21;;;;;;;27.52;16.58;;;;;;;-3.92;100.00;102213.19;4995060;28;20042;-84
2021/12/21 04:16:47;;;;;;;31.70;16.73;;;;;;;-3.92;100.00;102216.66;5021348;28;20120;-85
2021/12/21 04:19:13;;;;;;;27.85;16.70;;;;;;;-3.93;100.00;102209.72;5019329;28;20053;-85
2021/12/21 04:21:39;;;;;;;27.42;16.27;;;;;;;-3.93;100.00;102209.72;5019272;28;20124;-83
2021/12/21 04:24:07;;;;;;;26.33;16.20;;;;;;;-3.93;100.00;102203.63;5021961;28;20053;-82
2021/12/21 04:26:32;;;;;;;22.08;15.20;;;;;;;-3.94;100.00;102210.63;5020081;28;20099;-81
2021/12/21 04:28:58;;;;;;;23.33;15.63;;;;;;;-4.00;100.00;102200.28;5034266;28;20045;-84
2021/12/21 04:31:23;;;;;;;26.80;16.08;;;;;;;-3.94;100.00;102205.38;5024732;28;20042;-82
2021/12/21 04:33:49;;;;;;;24.33;16.63;;;;;;;-3.95;100.00;102206.25;5025795;28;20053;-84
2021/12/21 04:36:16;;;;;;;23.58;14.50;;;;;;;-3.97;100.00;102202.84;5024744;28;20041;-84
2021/12/21 04:38:46;;;;;;;23.95;15.85;;;;;;;-3.95;100.00;102205.41;5026289;28;20041;-83
2021/12/21 04:41:21;;;;;;;26.20;15.32;;;;;;;-3.94;100.00;102202.75;5025933;28;20116;-84
2021/12/21 04:43:47;;;;;;;24.70;14.57;;;;;;;-3.96;100.00;102204.53;5017579;28;20041;-84
2021/12/21 04:46:13;;;;;;;24.80;16.52;;;;;;;-3.94;100.00;102213.25;5045520;28;20045;-83
2021/12/21 04:48:38;;;;;;;25.67;15.20;;;;;;;-3.94;100.00;102213.25;5044092;28;20138;-84
2021/12/21 04:51:04;;;;;;;23.02;14.65;;;;;;;-3.96;100.00;102207.16;5044655;28;20053;-81
2021/12/21 04:53:30;;;;;;;25.67;17.20;;;;;;;-3.91;100.00;102215.78;5044953;28;20496;-84
2021/12/21 04:55:55;;;;;;;23.63;15.75;;;;;;;-3.89;100.00;102216.59;5026227;28;20052;-84
2021/12/21 04:58:21;;;;;;;26.67;15.73;;;;;;;-3.93;100.00;102214.97;5046524;28;20044;-83
2021/12/21 05:00:48;;;;;;;26.20;15.95;;;;;;;-4.00;100.00;102212.50;5027659;28;20040;-83
2021/12/21 05:03:13;;;;;;;25.73;16.13;;;;;;;-4.00;100.00;102213.41;5045910;28;20059;-83
2021/12/21 05:05:39;;;;;;;24.27;15.63;;;;;;;-4.02;100.00;102215.19;5030533;28;20064;-83
2021/12/21 05:08:10;;;;;;;28.88;16.33;;;;;;;-4.02;100.00;102212.56;5028303;28;20033;-83
2021/12/21 05:10:46;;;;;;;28.88;15.30;;;;;;;-4.05;100.00;102217.88;5048565;28;20045;-86
2021/12/21 05:13:13;;;;;;;23.52;15.93;;;;;;;-4.10;100.00;102214.50;5031375;28;20139;-82
2021/12/21 05:15:38;;;;;;;25.60;17.17;;;;;;;-4.08;100.00;102212.72;5048756;28;20090;-82
2021/12/21 05:18:04;;;;;;;23.80;17.08;;;;;;;-4.07;100.00;102209.19;5031371;28;20278;-83
2021/12/21 05:20:29;;;;;;;24.92;16.20;;;;;;;-4.14;100.00;102211.09;5027273;28;20083;-82
2021/12/21 05:22:55;;;;;;;24.48;16.83;;;;;;;-4.11;100.00;102205.78;5026803;28;20036;-83
2021/12/21 05:25:20;;;;;;;27.27;16.90;;;;;;;-4.17;100.00;102205.03;5036757;28;20044;-81
2021/12/21 05:27:46;;;;;;;30.65;17.85;;;;;;;-4.19;100.00;102206.84;5043015;28;20041;-83
2021/12/21 05:30:12;;;;;;;27.27;16.38;;;;;;;-4.20;100.00;102199.88;5027304;28;20053;-83
2021/12/21 05:32:39;;;;;;;29.30;17.63;;;;;;;-4.21;100.00;102200.78;5040582;28;20033;-85
2021/12/21 05:35:04;;;;;;;32.38;17.67;;;;;;;-4.23;100.00;102194.69;5047574;28;20049;-83
2021/12/21 05:37:30;;;;;;;26.75;17.10;;;;;;;-4.31;100.00;102197.50;5044614;28;20041;-82
2021/12/21 05:42:21;;;;;;;26.48;17.20;;;;;;;-4.24;100.00;102193.84;5024239;28;20489;-85
2021/12/21 05:44:47;;;;;;;26.20;17.27;;;;;;;-4.30;100.00;102204.47;5044754;28;20045;-82
2021/12/21 05:47:13;;;;;;;29.67;18.92;;;;;;;-4.23;100.00;102211.31;5010565;28;20178;-82
2021/12/21 05:49:38;;;;;;;26.05;17.23;;;;;;;-4.27;100.00;102209.63;5045108;28;20041;-83
2021/12/21 05:52:04;;;;;;;27.92;16.40;;;;;;;-4.23;100.00;102210.41;5032014;28;20053;-83
2021/12/21 05:54:29;;;;;;;26.48;16.98;;;;;;;-4.26;100.00;102218.34;5022524;28;20079;-82
2021/12/21 05:56:56;;;;;;;27.45;17.58;;;;;;;-4.25;100.00;102218.34;5041112;28;20474;-83
2021/12/21 05:59:21;;;;;;;28.25;18.50;;;;;;;-4.23;100.00;102221.78;5021345;28;20596;-83
2021/12/21 06:01:47;;;;;;;26.00;16.45;;;;;;;-4.24;100.00;102224.44;5022092;28;20135;-83
2021/12/21 06:04:12;;;;;;;26.88;18.58;;;;;;;-4.28;100.00;102218.41;5006436;28;20127;-82
2021/12/21 06:06:37;;;;;;;24.20;15.35;;;;;;;-4.36;100.00;102226.44;5022401;28;20072;-83
2021/12/21 06:09:06;;;;;;;30.60;18.55;;;;;;;-4.32;100.00;102225.44;5018764;28;20072;-83
2021/12/21 06:11:36;;;;;;;25.63;17.40;;;;;;;-4.31;100.00;102228.97;5039558;28;20041;-82
2021/12/21 06:14:14;;;;;;;27.45;17.83;;;;;;;-4.31;100.00;102235.06;5003916;28;20175;-82
2021/12/21 06:27:22;;;;;;;31.17;19.83;;;;;;;-4.42;100.00;102218.69;5009563;28;20048;-82
2021/12/21 06:29:48;;;;;;;30.65;18.25;;;;;;;-4.43;100.00;102213.47;5002598;28;20037;-81
2021/12/21 06:32:14;;;;;;;30.45;19.75;;;;;;;-4.44;100.00;102212.63;5019368;28;20053;-82
2021/12/21 06:34:40;;;;;;;34.83;20.33;;;;;;;-4.48;100.00;102208.34;5028897;28;20498;-82
2021/12/21 06:37:06;;;;;;;29.50;19.65;;;;;;;-4.46;100.00;102218.78;5023063;28;20088;-82
2021/12/21 06:39:33;;;;;;;36.95;20.75;;;;;;;-4.48;100.00;102220.59;5025035;28;20103;-83
2021/12/21 06:41:59;;;;;;;32.50;20.80;;;;;;;-4.55;100.00;102212.84;5025936;28;20044;-83
2021/12/21 06:44:24;;;;;;;33.00;21.00;;;;;;;-4.43;100.00;102214.38;5024331;28;20037;-82
2021/12/21 06:51:05;;;;;;;29.60;18.58;;;;;;;-4.46;100.00;102211.81;5009508;28;20084;-83
2021/12/21 06:52:25;;;;;;;26.35;18.70;;;;;;;-4.51;100.00;102212.81;5040307;28;20068;-83
2021/12/21 06:54:52;;;;;;;32.20;20.23;;;;;;;-4.52;100.00;102219.78;5013575;28;20051;-82
2021/12/21 06:57:17;;;;;;;29.63;19.45;;;;;;;-4.55;100.00;102218.09;5014998;28;20034;-83
2021/12/21 06:59:43;;;;;;;30.45;20.98;;;;;;;-4.60;100.00;102221.72;5000100;28;20453;-82
2021/12/21 07:02:09;;;;;;;29.40;19.40;;;;;;;-4.57;100.00;102211.19;5022034;28;20116;-83
2021/12/21 07:04:35;;;;;;;26.45;19.33;;;;;;;-4.56;100.00;102212.91;5023422;28;20128;-82
2021/12/21 07:07:00;;;;;;;35.78;20.27;;;;;;;-4.61;100.00;102206.88;5003913;28;20410;-82
2021/12/21 07:09:36;;;;;;;32.42;21.55;;;;;;;-4.60;100.00;102213.88;5020163;28;20621;-82
2021/12/21 07:20:06;;;;;;;30.05;18.17;;;;;;;-4.67;100.00;102214.88;5019898;28;20084;-81
2021/12/21 07:22:31;;;;;;;28.60;17.60;;;;;;;-4.67;100.00;102222.75;5023858;28;20037;-81
2021/12/21 07:24:57;;;;;;;28.70;18.20;;;;;;;-4.67;100.00;102225.34;5023410;28;20140;-82
2021/12/21 07:27:22;;;;;;;28.83;18.77;;;;;;;-4.68;100.00;102214.03;5024812;28;20044;-82
2021/12/21 07:29:49;;;;;;;27.42;18.38;;;;;;;-4.68;100.00;102221.03;5017105;28;20457;-82
2021/12/21 07:32:16;;;;;;;28.58;19.35;;;;;;;-4.68;100.00;102224.50;5024172;28;20041;-81
2021/12/21 07:34:41;;;;;;;26.90;18.27;;;;;;;-4.68;100.00;102219.25;5023306;28;20037;-83
2021/12/21 07:37:09;;;;;;;22.98;16.52;;;;;;;-4.67;100.00;102235.84;5009385;28;20045;-82
2021/12/21 07:39:37;;;;;;;26.37;17.53;;;;;;;-4.67;100.00;102239.31;5023280;28;20056;-82
2021/12/21 07:42:04;;;;;;;25.15;17.00;;;;;;;-4.67;100.00;102235.84;5017009;28;20527;-82
2021/12/21 07:44:31;;;;;;;25.45;17.42;;;;;;;-4.72;100.00;102227.19;5021832;28;20083;-82
2021/12/21 07:46:57;;;;;;;25.60;16.27;;;;;;;-4.76;100.00;102232.50;5022147;28;20037;-82
2021/12/21 07:49:22;;;;;;;25.30;16.35;;;;;;;-4.72;100.00;102233.31;5024881;28;20040;-82
2021/12/21 07:51:48;;;;;;;28.17;17.77;;;;;;;-4.74;100.00;102235.09;5022253;28;20049;-81
2021/12/21 07:54:15;;;;;;;25.58;17.63;;;;;;;-4.71;100.00;102227.19;5000661;28;20045;-82
2021/12/21 07:56:40;;;;;;;24.38;18.38;;;;;;;-4.74;100.00;102229.00;5032783;28;20098;-82
2021/12/21 07:59:06;;;;;;;26.13;18.08;;;;;;;-4.69;100.00;102232.38;5021216;28;20406;-82
2021/12/21 08:01:31;;;;;;;27.02;16.83;;;;;;;-4.74;100.00;102229.00;5021383;28;20056;-81
2021/12/21 08:03:57;;;;;;;29.42;22.13;;;;;;;-4.73;100.00;102226.34;5020427;28;20045;-82
2021/12/21 08:06:23;;;;;;;33.72;24.90;;;;;;;-4.67;100.00;102235.84;5023931;28;20041;-81
2021/12/21 08:08:50;;;;;;;28.92;21.42;;;;;;;-4.73;100.00;102242.06;4988634;28;20056;-81
2021/12/21 08:14:03;;;;;;;27.23;19.55;;;;;;;-4.68;100.00;102239.38;4999853;28;20064;-82
2021/12/21 08:16:29;;;;;;;25.70;18.92;;;;;;;-4.70;100.00;102238.53;5021600;28;20536;-81
2021/12/21 08:18:55;;;;;;;27.88;19.40;;;;;;;-4.63;100.00;102242.72;4998467;28;20045;-81
2021/12/21 08:21:22;;;;;;;28.85;18.55;;;;;;;-4.60;100.00;102240.94;5019014;28;20041;-81
2021/12/21 08:23:48;;;;;;;27.58;19.30;;;;;;;-4.60;100.00;102235.69;5035767;28;20402;-82
2021/12/21 08:26:13;;;;;;;28.30;19.45;;;;;;;-4.56;100.00;102234.72;5023066;28;20045;-81
2021/12/21 08:28:39;;;;;;;32.03;20.38;;;;;;;-4.48;100.00;102237.19;5026195;28;20099;-81
2021/12/21 08:31:09;;;;;;;25.83;18.08;;;;;;;-4.48;100.00;102244.19;5020484;28;20045;-81
2021/12/21 08:33:35;;;;;;;23.08;17.15;;;;;;;-4.43;100.00;102242.31;5022774;28;20076;-81
2021/12/21 08:36:01;;;;;;;28.35;18.98;;;;;;;-4.45;100.00;102244.97;5036543;28;20402;-81
2021/12/21 08:38:26;;;;;;;22.80;16.23;;;;;;;-4.38;100.00;102243.94;5022327;28;20053;-82
2021/12/21 08:40:53;;;;;;;28.15;17.05;;;;;;;-4.33;100.00;102247.31;5004271;28;20084;-82
2021/12/21 08:43:24;;;;;;;30.23;20.42;;;;;;;-4.25;100.00;102248.94;5003056;28;20050;-82
2021/12/21 08:45:51;;;;;;;24.05;18.55;;;;;;;-4.18;100.00;102247.88;5020678;28;20426;-82
2021/12/21 08:48:17;;;;;;;27.38;18.75;;;;;;;-4.15;100.00;102245.19;5023142;28;20191;-81
2021/12/21 08:50:44;;;;;;;27.90;20.02;;;;;;;-4.08;100.00;102236.31;5020047;28;20049;-81
2021/12/21 08:53:12;;;;;;;27.83;18.85;;;;;;;-4.07;100.00;102238.03;5020199;28;20129;-81
2021/12/21 08:55:40;;;;;;;27.60;20.47;;;;;;;-4.01;100.00;102234.41;5022768;28;20045;-82
2021/12/21 08:58:06;;;;;;;33.63;21.05;;;;;;;-3.98;100.00;102235.19;5022653;28;20272;-83
2021/12/21 09:00:32;;;;;;;29.80;18.95;;;;;;;-3.93;100.00;102241.19;5020418;28;20042;-81
2021/12/21 09:02:57;;;;;;;30.70;20.33;;;;;;;-3.90;100.00;102241.13;5022417;28;20044;-82
2021/12/21 09:05:27;;;;;;;30.40;22.85;;;;;;;-3.76;100.00;102240.78;5022164;28;20272;-82
2021/12/21 09:07:52;;;;;;;;;;;;;;;-3.72;100.00;102238.94;5020298;28;20478;-83
2021/12/21 09:10:20;;;;;;;38.03;25.10;;;;;;;-3.70;100.00;102242.41;5022138;28;19924;-83
2021/12/21 09:12:47;;;;;;;40.13;25.97;;;;;;;-3.66;100.00;102239.66;5020996;28;20037;-84
2021/12/21 09:15:14;;;;;;;36.10;23.77;;;;;;;-3.54;100.00;102243.75;5017763;28;20060;-83
2021/12/21 09:17:41;;;;;;;34.78;23.73;;;;;;;-3.46;100.00;102240.91;5007500;28;20033;-82
2021/12/21 09:20:09;;;;;;;36.00;24.58;;;;;;;-3.34;100.00;102239.75;5027196;28;20764;-81
2021/12/21 09:22:35;;;;;;;35.95;25.45;;;;;;;-3.24;100.00;102241.25;5026181;28;20048;-82
2021/12/21 09:25:01;;;;;;;42.22;26.40;;;;;;;-3.18;100.00;102241.06;5013164;28;20041;-82
2021/12/21 09:27:26;;;;;;;41.05;27.75;;;;;;;-3.05;100.00;102245.09;5040287;28;20049;-81
2021/12/21 09:29:52;;;;;;;37.13;26.42;;;;;;;-2.99;100.00;102239.69;5021286;28;20049;-82
2021/12/21 09:32:18;;;;;;;40.42;25.88;;;;;;;-2.88;100.00;102238.50;5024347;28;20438;-82
2021/12/21 09:34:45;;;;;;;39.38;25.48;;;;;;;-2.83;100.00;102237.47;5008426;28;20037;-82
2021/12/21 09:37:20;;;;;;;40.58;27.60;;;;;;;-2.72;100.00;102239.81;5021301;28;20445;-82
2021/12/21 09:39:48;;;;;;;40.03;25.85;;;;;;;-2.63;100.00;102234.28;5023883;28;20046;-82
2021/12/21 09:42:17;;;;;;;39.70;24.52;;;;;;;-2.56;100.00;102235.84;5020265;28;20037;-81
2021/12/21 09:44:44;;;;;;;43.47;26.38;;;;;;;-2.51;100.00;102239.19;5006835;28;20517;-82
2021/12/21 09:47:11;;;;;;;36.33;25.20;;;;;;;-2.45;100.00;102237.28;5024375;28;20520;-81
2021/12/21 09:49:38;;;;;;;37.95;27.13;;;;;;;-2.37;100.00;102235.28;5024690;28;20146;-82
2021/12/21 09:52:06;;;;;;;41.55;26.40;;;;;;;-2.31;100.00;102230.69;5018254;28;20371;-82
2021/12/21 09:54:33;;;;;;;39.80;26.80;;;;;;;-2.27;100.00;102229.72;5015964;28;20103;-83
2021/12/21 09:57:01;;;;;;;43.90;28.58;;;;;;;-2.16;100.00;102228.50;5037877;28;20045;-82
2021/12/21 09:59:27;;;;;;;41.13;27.27;;;;;;;-2.09;100.00;102220.38;5025338;28;20041;-83
2021/12/21 10:01:55;;;;;;;43.22;28.33;;;;;;;-1.98;100.00;102221.84;5017974;28;20080;-82
2021/12/21 10:04:21;;;;;;;43.90;28.13;;;;;;;-1.91;100.00;102215.44;5040334;28;20053;-84
2021/12/21 10:06:49;;;;;;;40.13;27.20;;;;;;;-1.87;100.00;102214.44;5024739;28;20041;-83
2021/12/21 10:09:18;;;;;;;40.17;27.00;;;;;;;-1.82;100.00;102212.50;5023545;28;20045;-82
2021/12/21 10:11:49;;;;;;;44.10;29.33;;;;;;;-1.76;100.00;102214.94;5025356;28;20616;-82
2021/12/21 10:14:18;;;;;;;45.00;30.10;;;;;;;-1.73;100.00;102212.22;5026813;28;20624;-82
2021/12/21 10:16:47;;;;;;;42.65;29.95;;;;;;;-1.64;100.00;102209.28;5025059;28;20053;-82
2021/12/21 10:19:23;;;;;;;41.95;27.58;;;;;;;-1.60;100.00;102216.16;5045455;28;20033;-82
2021/12/21 10:21:49;;;;;;;38.58;26.90;;;;;;;-1.63;100.00;102218.03;5040816;28;20136;-82
2021/12/21 10:24:22;;;;;;;42.65;28.83;;;;;;;-1.51;100.00;102217.63;5045486;28;20561;-83
2021/12/21 10:26:48;;;;;;;42.42;28.25;;;;;;;-1.52;100.00;102208.03;5006866;28;20734;-82
2021/12/21 10:29:15;;;;;;;41.78;29.40;;;;;;;-1.44;100.00;102213.00;5006112;28;20124;-83
2021/12/21 10:31:44;;;;;;;42.72;27.13;;;;;;;-1.38;100.00;102213.69;5010835;28;20053;-82
2021/12/21 10:34:18;;;;;;;41.58;28.15;;;;;;;-1.32;100.00;102203.81;5026147;28;20437;-83
2021/12/21 10:36:50;;;;;;;42.75;27.52;;;;;;;-1.27;100.00;102200.13;5031463;28;20037;-83
2021/12/21 10:39:21;;;;;;;43.22;27.98;;;;;;;-1.15;100.00;102201.47;5025321;28;20124;-82
2021/12/21 10:41:47;;;;;;;40.80;28.23;;;;;;;-1.08;100.00;102196.84;5040463;28;20048;-83
2021/12/21 10:44:18;;;;;;;43.20;28.52;;;;;;;-0.96;100.00;102191.13;5022421;28;20037;-84
2021/12/21 10:46:53;;;;;;;43.38;29.67;;;;;;;-0.88;100.00;102191.72;5026191;28;20497;-82
2021/12/21 10:49:23;;;;;;;42.55;28.30;;;;;;;-0.86;100.00;102192.53;5044085;28;20589;-83
2021/12/21 10:51:58;;;;;;;39.78;28.55;;;;;;;-0.80;100.00;102189.66;5024209;28;20046;-82
2021/12/21 10:54:30;;;;;;;41.83;29.70;;;;;;;-0.75;100.00;102187.72;5018131;28;20053;-84
2021/12/21 10:57:01;;;;;;;46.40;30.58;;;;;;;-0.63;100.00;102182.88;5021149;28;20099;-81
2021/12/21 10:59:32;;;;;;;42.40;30.67;;;;;;;-0.58;100.00;102183.56;5022877;28;20041;-83
2021/12/21 11:02:07;;;;;;;41.65;27.05;;;;;;;-0.52;100.00;102183.31;5026523;28;20080;-83
2021/12/21 11:04:41;;;;;;;41.08;28.77;;;;;;;-0.50;100.00;102177.06;5024376;28;20056;-83
2021/12/21 11:07:29;;;;;;;45.13;31.45;;;;;;;-0.45;100.00;102174.28;5019567;28;20099;-82
2021/12/21 11:09:54;;;;;;;42.25;30.55;;;;;;;-0.37;100.00;102182.75;5019240;28;20433;-83
2021/12/21 11:12:20;;;;;;;40.72;26.38;;;;;;;-0.18;100.00;102182.00;5024908;28;20037;-83
2021/12/21 11:14:45;;;;;;;39.55;25.67;;;;;;;-0.21;100.00;102174.22;5022204;28;20045;-82
2021/12/21 11:17:11;;;;;;;36.40;24.13;;;;;;;-0.22;100.00;102167.22;5007283;28;20053;-83
2021/12/21 11:19:37;;;;;;;44.25;27.92;;;;;;;-0.25;100.00;102176.97;5003742;28;20045;-82
2021/12/21 11:22:02;;;;;;;38.15;27.88;;;;;;;-0.14;100.00;102179.19;4992563;28;20048;-82
2021/12/21 11:24:30;;;;;;;38.92;22.80;;;;;;;-0.04;100.00;102175.25;5023627;28;20107;-82
2021/12/21 11:26:56;;;;;;;34.65;22.08;;;;;;;-0.06;100.00;102178.88;5020427;28;20421;-82
2021/12/21 11:29:21;;;;;;;35.65;24.35;;;;;;;0.03;100.00;102175.88;5022646;28;20064;-83
2021/12/21 11:31:51;;;;;;;37.13;23.10;;;;;;;0.15;100.00;102178.00;5021768;28;20037;-82
2021/12/21 11:34:20;;;;;;;40.30;25.98;;;;;;;0.26;100.00;102174.06;5036719;28;20056;-81
2021/12/21 11:39:34;;;;;;;33.58;23.20;;;;;;;0.36;100.00;102167.47;5023972;28;20104;-82
2021/12/21 11:42:05;;;;;;;34.47;21.48;;;;;;;0.52;100.00;102170.31;5021474;28;20045;-83
2021/12/21 11:44:53;;;;;;;31.48;20.45;;;;;;;0.52;100.00;102162.38;5021041;28;20041;-82
2021/12/21 11:47:27;;;;;;;31.13;20.10;;;;;;;0.62;100.00;102156.63;5032839;28;20449;-82
2021/12/21 11:49:55;;;;;;;29.65;20.30;;;;;;;0.64;100.00;102146.88;5018577;28;20402;-83
2021/12/21 11:52:24;;;;;;;34.88;22.75;;;;;;;0.86;100.00;102145.91;5023937;28;20040;-83
2021/12/21 11:54:56;;;;;;;35.38;23.75;;;;;;;0.98;100.00;102140.09;5022196;28;20046;-82
2021/12/21 11:57:41;;;;;;;32.13;21.35;;;;;;;1.14;100.00;102145.53;5018946;28;20033;-83
2021/12/21 12:00:17;;;;;;;34.55;23.98;;;;;;;1.25;100.00;102140.59;5022574;28;20566;-84
2021/12/21 12:02:45;;;;;;;35.22;23.08;;;;;;;1.33;100.00;102140.25;5036744;28;20046;-82
2021/12/21 12:05:44;;;;;;;29.10;19.98;;;;;;;1.39;100.00;102142.59;5001858;28;20099;-83
2021/12/21 12:08:12;;;;;;;26.95;18.92;;;;;;;1.47;100.00;102137.81;5018260;28;20490;-82
2021/12/21 12:10:56;;;;;;;30.63;22.00;;;;;;;1.56;100.00;102136.53;5023243;28;20099;-82
2021/12/21 12:13:34;;;;;;;27.88;20.35;;;;;;;1.57;100.00;102140.88;5038150;28;20054;-83
2021/12/21 12:16:06;;;;;;;26.92;20.13;;;;;;;1.54;100.00;102130.44;5014620;28;20124;-82
2021/12/21 12:18:33;;;;;;;28.00;18.63;;;;;;;1.57;100.00;102138.22;5023422;28;20402;-84
2021/12/21 12:21:15;;;;;;;26.60;19.50;;;;;;;1.70;100.00;102135.88;5020184;28;20048;-83